Roddickton, Canada
Current Conditions -  °F | °C
As of 2:00 AM on Saturday 29 Nov 2014 (Local Time) from CYAY Reporting Station
Light Snow Light Snow  
Wind Chill:   Ceiling: 3500
Heat Index: 18°   Visibility: 9mi
Dew Point: 14°   Wind: 6mph
Humidity: 86%   Direction: 290°WNW
Pressure: 29.88"   Gusts: NA
Location:  50.85°N, 56.12°W
Report Text: CYAY 290500Z AUTO 29005KT 9SM -SN FEW024 OVC035 M08/M10 A2988 RMK SLP121
Loading
Personal Weather Stations






























Interactive Weather Map New forecast layout! Learn more

10-Day Weather Forecast

Advertisements
Track Severe Weather on mobile